Time;durP1;ratioP1;P1;durP2;ratioP2;P2;SDS_P1;SDS_P2;PMS_P1;PMS_P2;Temp;Humidity;BMP_temperature;BMP_pressure;BME280_temperature;BME280_humidity;BME280_pressure;Samples;Min_cycle;Max_cycle;Signal;HPM_P1;HPM_P2
2022/01/25 00:39:46;;;;;;;25.80;11.32;;;-0.90;99.90;;;;;;21056972;28;20089;-48
2022/01/25 00:49:52;;;;;;;23.30;10.93;;;-1.00;99.90;;;;;;21056267;28;20036;-47
2022/01/25 00:59:55;;;;;;;20.85;9.32;;;-1.00;99.90;;;;;;21038870;28;20090;-45
2022/01/25 01:09:59;;;;;;;19.38;9.30;;;-1.00;99.90;;;;;;21056923;28;20097;-45
2022/01/25 01:40:49;;;;;;;24.92;9.75;;;-1.20;99.90;;;;;;21054089;28;20213;-47
2022/01/25 01:50:53;;;;;;;19.05;8.25;;;-1.20;99.90;;;;;;21050928;28;20373;-45
2022/01/25 02:00:56;;;;;;;24.95;10.48;;;-1.10;99.90;;;;;;21051883;28;20043;-46
2022/01/25 02:11:01;;;;;;;27.83;11.20;;;-1.10;99.90;;;;;;21051615;28;20024;-48
2022/01/25 02:31:24;;;;;;;;;;;-1.20;99.90;;;;;;21051762;28;20082;-46
2022/01/25 02:41:26;;;;;;;29.02;10.48;;;-1.20;99.90;;;;;;21049904;28;19972;-45
2022/01/25 02:51:36;;;;;;;37.45;12.00;;;-1.20;99.90;;;;;;21050245;28;20044;-46
2022/01/25 03:01:39;;;;;;;30.70;11.00;;;-1.20;99.90;;;;;;21049218;28;20434;-46
2022/01/25 03:11:49;;;;;;;27.05;10.70;;;-1.30;99.90;;;;;;21049327;28;20028;-45
2022/01/25 03:21:59;;;;;;;23.25;8.60;;;-1.50;99.90;;;;;;21062204;28;20082;-45
2022/01/25 03:32:03;;;;;;;21.85;8.13;;;-1.60;99.90;;;;;;21063895;28;20094;-45
2022/01/25 03:42:09;;;;;;;15.80;6.75;;;-1.60;99.90;;;;;;21062381;28;20039;-45
2022/01/25 03:52:12;;;;;;;16.40;6.32;;;-1.60;99.90;;;;;;21060477;28;20062;-44
2022/01/25 04:02:15;;;;;;;14.43;6.63;;;-1.60;99.90;;;;;;21060942;28;20054;-46
2022/01/25 04:12:20;;;;;;;20.02;7.55;;;-1.50;99.90;;;;;;21058696;28;20048;-46
2022/01/25 05:03:40;;;;;;;223.43;14.85;;;-1.40;99.90;;;;;;20716526;28;20049;-45
2022/01/25 05:13:52;;;;;;;30.20;10.20;;;-1.40;99.90;;;;;;20715880;28;20526;-46
2022/01/25 05:23:56;;;;;;;21.92;8.68;;;-1.60;99.90;;;;;;20793149;28;20388;-48
2022/01/25 05:33:59;;;;;;;18.02;8.07;;;-1.80;99.90;;;;;;20971057;28;20485;-45
2022/01/25 05:54:06;;;;;;;17.27;8.35;;;-2.00;99.90;;;;;;21026321;28;20040;-46
2022/01/25 06:04:09;;;;;;;10.40;5.35;;;-1.90;99.90;;;;;;21051402;28;20036;-45
2022/01/25 06:14:12;;;;;;;18.55;7.20;;;-2.10;99.90;;;;;;21051268;28;20051;-45
2022/01/25 06:24:15;;;;;;;21.67;7.70;;;-2.30;99.90;;;;;;21049514;28;20040;-45
2022/01/25 06:34:18;;;;;;;31.42;10.63;;;-2.40;99.90;;;;;;21046814;28;20043;-48
2022/01/25 06:44:20;;;;;;;23.88;10.65;;;-2.30;99.90;;;;;;21132878;28;20179;-45
2022/01/25 06:54:23;;;;;;;20.25;9.05;;;-2.20;99.90;;;;;;21143039;28;20092;-45
2022/01/25 07:04:25;;;;;;;61.78;12.18;;;-2.10;99.90;;;;;;21132685;28;20061;-46
2022/01/25 07:14:28;;;;;;;114.65;13.05;;;-2.10;99.90;;;;;;21147285;28;20052;-46
2022/01/25 07:24:32;;;;;;;26.20;8.05;;;-2.30;99.90;;;;;;21146017;28;20044;-47
2022/01/25 07:34:34;;;;;;;39.55;10.25;;;-2.50;99.90;;;;;;21145426;28;20039;-45
2022/01/25 07:44:39;;;;;;;18.65;7.95;;;-2.20;99.90;;;;;;21144435;28;20065;-49
2022/01/25 07:54:42;;;;;;;81.60;10.40;;;-2.20;99.90;;;;;;21143616;28;20057;-45
2022/01/25 08:04:45;;;;;;;216.77;13.65;;;-2.10;99.90;;;;;;21143052;28;20036;-45
2022/01/25 08:14:48;;;;;;;16.30;7.60;;;-1.80;99.90;;;;;;21141983;28;20043;-47
2022/01/25 08:24:52;;;;;;;54.85;10.80;;;-1.50;99.90;;;;;;21141520;28;20039;-45
2022/01/25 08:34:55;;;;;;;23.52;8.45;;;-1.30;99.90;;;;;;21141871;28;20069;-45
2022/01/25 08:44:58;;;;;;;27.13;10.00;;;-1.00;99.90;;;;;;21140931;28;20116;-47
2022/01/25 08:55:01;;;;;;;25.60;9.00;;;-0.50;99.90;;;;;;21141179;28;20036;-47
2022/01/25 09:05:04;;;;;;;21.88;9.25;;;0.00;99.90;;;;;;21140521;28;20035;-46
2022/01/25 09:15:07;;;;;;;14.82;7.53;;;0.40;99.90;;;;;;21131635;28;20100;-45
2022/01/25 09:25:12;;;;;;;15.70;7.57;;;0.80;99.90;;;;;;21140019;28;20043;-45
2022/01/25 09:35:15;;;;;;;15.65;7.53;;;1.10;99.90;;;;;;21140223;28;20044;-45
2022/01/25 09:45:19;;;;;;;14.68;7.20;;;1.80;99.90;;;;;;21136922;28;20631;-44
2022/01/25 09:55:25;;;;;;;14.73;7.30;;;2.30;99.90;;;;;;21118513;28;20084;-44
2022/01/25 10:05:34;;;;;;;13.88;6.75;;;3.20;99.90;;;;;;21133845;28;20036;-46
2022/01/25 10:15:37;;;;;;;14.10;7.25;;;3.90;99.90;;;;;;21132595;28;20404;-46
2022/01/25 10:25:43;;;;;;;12.30;7.00;;;4.60;99.90;;;;;;21136050;28;20044;-47
2022/01/25 10:36:10;;;;;;;13.27;6.68;;;5.10;99.90;;;;;;21168938;28;20452;-47
2022/01/25 10:46:29;;;;;;;14.77;8.50;;;5.60;99.90;;;;;;21151397;28;20023;-45
2022/01/25 10:57:00;;;;;;;20.83;11.07;;;6.00;99.90;;;;;;21133299;28;20047;-45
2022/01/25 11:07:08;;;;;;;20.30;10.55;;;6.00;99.90;;;;;;21149069;28;20039;-46
2022/01/25 11:17:11;;;;;;;18.83;10.50;;;6.10;99.90;;;;;;21164312;28;20596;-47
2022/01/25 11:27:15;;;;;;;23.00;11.65;;;6.50;99.90;;;;;;21145275;28;20479;-46
2022/01/25 11:37:17;;;;;;;21.85;11.07;;;7.00;99.90;;;;;;21092928;28;20458;-45
2022/01/25 11:47:29;;;;;;;20.05;11.32;;;7.30;99.90;;;;;;21060777;28;20541;-45
2022/01/25 11:57:46;;;;;;;22.65;12.02;;;7.40;99.90;;;;;;21130810;28;20031;-45
2022/01/25 12:08:09;;;;;;;21.77;11.52;;;8.00;99.90;;;;;;21145629;28;20028;-46
2022/01/25 12:18:50;;;;;;;21.00;11.15;;;8.20;99.90;;;;;;21145357;28;20116;-45
2022/01/25 12:29:29;;;;;;;23.63;12.35;;;8.80;99.90;;;;;;21143333;28;20100;-47
2022/01/25 12:39:35;;;;;;;22.90;12.93;;;9.10;99.90;;;;;;21143267;28;20032;-46
2022/01/25 12:49:43;;;;;;;23.48;12.38;;;8.90;99.90;;;;;;21141160;28;20646;-48
2022/01/25 12:59:49;;;;;;;26.15;13.35;;;9.30;99.90;;;;;;21077100;28;20043;-47
2022/01/25 13:09:54;;;;;;;23.38;13.50;;;9.90;99.20;;;;;;21071567;28;20043;-44
2022/01/25 13:20:02;;;;;;;24.33;13.60;;;9.70;98.10;;;;;;21070208;28;20089;-45
2022/01/25 13:40:35;;;;;;;26.90;14.35;;;9.10;97.90;;;;;;21068815;28;20541;-48
2022/01/25 13:50:39;;;;;;;;;;;8.50;99.10;;;;;;21067824;28;20036;-46
2022/01/25 14:00:41;;;;;;;32.00;17.27;;;8.10;87.90;;;;;;21066687;28;19912;-46
2022/01/25 14:10:47;;;;;;;35.50;18.88;;;7.90;99.70;;;;;;21065608;28;20032;-46
2022/01/25 14:31:24;;;;;;;31.92;15.57;;;5.90;99.90;;;;;;21050436;28;20101;-46
2022/01/25 14:41:32;;;;;;;37.72;19.70;;;5.60;99.90;;;;;;20983830;28;20032;-46
2022/01/25 14:51:40;;;;;;;39.47;20.15;;;5.60;99.90;;;;;;20966626;28;20529;-47
2022/01/25 15:01:43;;;;;;;40.50;20.35;;;5.30;99.90;;;;;;20984151;28;20106;-46
2022/01/25 15:11:50;;;;;;;43.05;22.17;;;5.00;99.90;;;;;;21017402;28;20097;-45
2022/01/25 15:21:53;;;;;;;49.83;24.27;;;4.70;99.90;;;;;;21146733;28;20035;-45
2022/01/25 15:31:58;;;;;;;4.25;2.50;;;3.90;99.90;;;;;;21145004;28;20036;-46
2022/01/25 15:42:02;;;;;;;1.52;0.30;;;3.70;99.90;;;;;;21144523;28;20100;-47
2022/01/25 15:52:06;;;;;;;2.33;0.45;;;3.70;95.40;;;;;;20900776;28;20041;-45
2022/01/25 16:02:13;;;;;;;0.73;0.38;;;3.60;95.50;;;;;;20883820;28;20067;-45
2022/01/25 16:12:16;;;;;;;0.52;0.30;;;3.50;94.70;;;;;;20883371;28;20029;-45
2022/01/25 16:22:19;;;;;;;0.57;0.20;;;3.20;94.30;;;;;;20884663;28;20036;-45
2022/01/25 16:32:24;;;;;;;1.05;0.25;;;3.20;93.30;;;;;;20974071;28;20125;-45
2022/01/25 16:42:27;;;;;;;0.60;0.20;;;3.20;92.70;;;;;;21135499;28;20035;-45
2022/01/25 16:52:30;;;;;;;0.47;0.10;;;3.00;92.90;;;;;;21138258;28;20475;-46
2022/01/25 17:02:33;;;;;;;0.38;0.20;;;2.90;91.80;;;;;;21137366;28;20109;-45
2022/01/25 17:12:39;;;;;;;1.45;0.10;;;3.00;91.60;;;;;;21118597;28;20429;-45
2022/01/25 17:22:42;;;;;;;0.40;0.10;;;2.80;91.20;;;;;;21103684;28;20418;-47
2022/01/25 17:32:45;;;;;;;0.05;0.00;;;2.70;90.40;;;;;;21050508;28;20483;-46
2022/01/25 17:42:49;;;;;;;0.77;0.00;;;2.80;90.20;;;;;;21052721;28;20040;-45
2022/01/25 17:52:53;;;;;;;0.30;0.00;;;2.70;90.00;;;;;;21080524;28;20047;-47
2022/01/25 18:02:56;;;;;;;0.32;0.10;;;2.80;89.60;;;;;;21133910;28;20043;-45
2022/01/25 18:12:59;;;;;;;0.13;0.10;;;2.90;88.40;;;;;;21133688;28;20403;-47
2022/01/25 18:23:08;;;;;;;0.22;0.10;;;3.10;88.10;;;;;;21129343;28;20024;-45
2022/01/25 18:33:10;;;;;;;1.15;0.10;;;3.20;88.40;;;;;;21107032;28;20028;-48
2022/01/25 18:43:17;;;;;;;0.00;0.00;;;3.10;90.10;;;;;;21122366;28;20351;-60
2022/01/25 18:53:20;;;;;;;1.00;0.10;;;2.90;90.70;;;;;;21143033;28;20040;-59
2022/01/25 19:03:23;;;;;;;0.25;0.13;;;2.90;91.10;;;;;;21144558;28;20035;-59
2022/01/25 19:13:25;;;;;;;0.20;0.00;;;2.90;91.10;;;;;;21145604;28;20051;-55
2022/01/25 19:23:28;;;;;;;0.25;0.10;;;2.90;91.60;;;;;;21123455;28;20447;-59
2022/01/25 19:33:31;;;;;;;0.55;0.10;;;2.90;92.10;;;;;;21120291;28;20043;-57
2022/01/25 19:43:36;;;;;;;0.55;0.10;;;3.00;92.10;;;;;;21140106;28;20061;-58
2022/01/25 19:53:41;;;;;;;0.55;0.10;;;3.30;91.10;;;;;;21137818;28;20039;-54
2022/01/25 20:03:44;;;;;;;0.28;0.10;;;3.50;90.70;;;;;;21138868;28;20031;-59
2022/01/25 20:13:47;;;;;;;0.30;0.10;;;3.30;91.20;;;;;;21141540;28;20051;-55
2022/01/25 20:33:54;;;;;;;0.22;0.10;;;3.50;89.90;;;;;;21080472;28;20096;-62
2022/01/25 20:43:57;;;;;;;0.25;0.10;;;3.50;89.70;;;;;;21138047;28;20120;-58
2022/01/25 20:54:00;;;;;;;0.20;0.10;;;3.50;89.50;;;;;;21057622;28;20058;-59
2022/01/25 21:14:08;;;;;;;0.20;0.10;;;4.00;88.40;;;;;;21090378;28;20077;-61
2022/01/25 21:24:12;;;;;;;0.00;0.00;;;3.40;90.00;;;;;;20969777;28;20083;-64
2022/01/25 21:34:15;;;;;;;1.08;0.10;;;3.20;90.20;;;;;;20931839;28;20041;-55
2022/01/25 21:44:19;;;;;;;0.75;0.25;;;3.00;90.40;;;;;;20875172;28;20041;-58
2022/01/25 21:54:21;;;;;;;0.17;0.10;;;3.00;90.10;;;;;;20931947;28;20098;-63
2022/01/25 22:04:33;;;;;;;1.48;0.00;;;3.00;89.20;;;;;;21063341;28;20044;-62
2022/01/25 22:14:41;;;;;;;0.10;0.03;;;2.70;90.30;;;;;;21071942;28;20101;-52
2022/01/25 22:24:44;;;;;;;1.27;0.10;;;2.30;91.40;;;;;;21115654;28;20089;-53
2022/01/25 22:34:47;;;;;;;0.47;0.13;;;2.20;90.80;;;;;;21156891;28;20092;-57
2022/01/25 22:44:53;;;;;;;0.25;0.10;;;2.10;91.90;;;;;;21125601;28;20044;-44
2022/01/25 22:54:56;;;;;;;0.68;0.10;;;1.90;92.00;;;;;;21123359;28;20035;-46
2022/01/25 23:04:58;;;;;;;0.10;0.10;;;2.00;91.60;;;;;;21151729;28;20131;-44
2022/01/25 23:15:04;;;;;;;0.85;0.10;;;1.90;91.70;;;;;;21153241;28;20073;-44
2022/01/25 23:25:07;;;;;;;0.63;0.10;;;2.20;91.30;;;;;;21158211;28;20410;-47
2022/01/25 23:35:21;;;;;;;0.28;0.10;;;2.10;91.00;;;;;;21150153;28;20093;-44
2022/01/25 23:45:25;;;;;;;0.22;0.10;;;2.10;91.30;;;;;;21144404;28;20383;-44
